Time;durP1;ratioP1;P1;durP2;ratioP2;P2;SDS_P1;SDS_P2;PMS_P1;PMS_P2;Temp;Humidity;BMP_temperature;BMP_pressure;BME280_temperature;BME280_humidity;BME280_pressure;Samples;Min_cycle;Max_cycle;Signal;HPM_P1;HPM_P2
2022/05/21 00:01:56;;;;;;;4.97;3.20;;;;;;;16.80;55.44;101918.63;5010507;28;20080;-60
2022/05/21 00:04:24;;;;;;;3.60;2.30;;;;;;;16.79;55.38;101922.41;5013165;28;20054;-60
2022/05/21 00:06:52;;;;;;;7.00;3.55;;;;;;;16.78;55.45;101921.56;5004796;28;20073;-60
2022/05/21 00:09:20;;;;;;;3.95;2.63;;;;;;;16.77;55.35;101913.66;5012847;28;20049;-60
2022/05/21 00:11:49;;;;;;;4.00;2.75;;;;;;;16.75;55.33;101913.91;5017993;28;20074;-60
2022/05/21 00:14:17;;;;;;;5.53;3.15;;;;;;;16.74;55.42;101912.25;5014808;28;20089;-60
2022/05/21 00:16:44;;;;;;;3.55;2.28;;;;;;;16.72;55.52;101919.78;5014478;28;20077;-60
2022/05/21 00:19:12;;;;;;;4.43;2.20;;;;;;;16.72;55.40;101921.69;5011330;28;20069;-60
2022/05/21 00:21:40;;;;;;;4.32;2.30;;;;;;;16.69;55.61;101914.84;5007198;28;20054;-60
2022/05/21 00:24:08;;;;;;;5.22;2.70;;;;;;;16.71;55.34;101920.03;5011404;28;20049;-60
2022/05/21 00:26:36;;;;;;;3.10;1.90;;;;;;;16.69;55.25;101922.16;5010435;28;20141;-61
2022/05/21 00:29:05;;;;;;;5.53;2.45;;;;;;;16.66;55.46;101920.75;5013825;28;20078;-61
2022/05/21 00:31:33;;;;;;;5.28;2.20;;;;;;;16.66;55.47;101920.75;5059247;28;20090;-61
2022/05/21 00:34:01;;;;;;;6.63;2.65;;;;;;;16.62;55.32;101908.66;5077638;28;20055;-60
2022/05/21 00:36:30;;;;;;;4.43;2.00;;;;;;;16.64;55.44;101908.44;5072012;28;20054;-60
2022/05/21 00:38:58;;;;;;;3.25;1.95;;;;;;;16.64;55.50;101919.28;5064969;28;20076;-60
2022/05/21 00:41:25;;;;;;;3.42;2.28;;;;;;;16.63;55.37;101925.78;5076908;28;20049;-60
2022/05/21 00:43:56;;;;;;;4.93;1.77;;;;;;;16.61;55.32;101926.03;5070467;28;20069;-60
2022/05/21 00:46:30;;;;;;;4.85;2.47;;;;;;;16.59;55.27;101922.72;5064240;28;20049;-60
2022/05/21 00:49:05;;;;;;;4.40;1.90;;;;;;;16.57;55.50;101927.56;5078825;28;20477;-60
2022/05/21 00:51:37;;;;;;;3.72;1.85;;;;;;;16.55;55.33;101916.09;5066506;28;20103;-61
2022/05/21 00:54:06;;;;;;;4.57;1.85;;;;;;;16.53;55.36;101919.06;5080619;28;20044;-60
2022/05/21 00:56:37;;;;;;;2.97;2.10;;;;;;;16.50;55.48;101924.13;5073585;28;21501;-60
2022/05/21 01:01:57;;;;;;;5.85;1.70;;;;;;;16.51;55.45;101928.50;5080855;28;20060;-60
2022/05/21 01:04:26;;;;;;;5.95;2.00;;;;;;;16.51;55.39;101928.50;5079004;28;20059;-60
2022/05/21 01:06:57;;;;;;;4.05;2.25;;;;;;;16.49;55.37;101926.00;5084229;28;20048;-60
2022/05/21 01:09:24;;;;;;;9.63;2.20;;;;;;;16.45;55.51;101918.56;5070031;28;20079;-60
2022/05/21 01:11:52;;;;;;;4.47;1.90;;;;;;;16.45;55.70;101927.53;5074309;28;20072;-60
2022/05/21 01:14:21;;;;;;;3.17;1.80;;;;;;;16.42;55.50;101925.28;5082217;28;20060;-60
2022/05/21 01:16:49;;;;;;;2.47;1.70;;;;;;;16.42;55.51;101913.63;5078403;28;20084;-60
2022/05/21 01:19:19;;;;;;;5.05;2.03;;;;;;;16.41;55.61;101928.25;5068648;28;20071;-60
2022/05/21 01:21:47;;;;;;;4.03;1.85;;;;;;;16.40;55.59;101924.69;5083254;28;20049;-59
2022/05/21 01:24:16;;;;;;;5.88;2.10;;;;;;;16.39;55.49;101925.75;5083111;28;20048;-60
2022/05/21 01:26:44;;;;;;;4.43;1.77;;;;;;;16.37;55.69;101925.16;5066852;28;20399;-60
2022/05/21 01:29:18;;;;;;;4.68;1.90;;;;;;;16.36;55.71;101926.22;5071374;28;20064;-61
2022/05/21 01:31:51;;;;;;;2.35;1.65;;;;;;;16.35;55.75;101927.28;5072948;28;20565;-61
2022/05/21 01:34:21;;;;;;;4.40;2.00;;;;;;;16.35;55.69;101937.31;5077638;28;20048;-60
2022/05/21 01:36:50;;;;;;;3.22;1.85;;;;;;;16.31;55.78;101931.53;5064455;28;20109;-61
2022/05/21 01:39:19;;;;;;;5.57;2.10;;;;;;;16.31;55.72;101931.53;5070865;28;20183;-60
2022/05/21 01:41:48;;;;;;;2.83;1.55;;;;;;;16.31;55.84;101925.28;5066320;28;20053;-60
2022/05/21 01:47:01;;;;;;;3.78;1.92;;;;;;;16.30;55.92;101923.63;5068994;28;20045;-59
2022/05/21 01:49:29;;;;;;;8.18;2.03;;;;;;;16.27;55.99;101920.31;5069116;28;20072;-60
2022/05/21 01:51:57;;;;;;;5.18;2.22;;;;;;;16.27;56.04;101911.34;5075947;28;20049;-60
2022/05/21 01:54:26;;;;;;;5.20;1.98;;;;;;;16.27;55.97;101924.91;5092040;28;20040;-60
2022/05/21 01:56:54;;;;;;;5.93;2.30;;;;;;;16.24;56.20;101915.38;5075875;28;20056;-60
2022/05/21 01:59:22;;;;;;;7.00;1.65;;;;;;;16.24;56.12;101925.38;5078436;28;20049;-60
2022/05/21 02:01:50;;;;;;;6.80;2.25;;;;;;;16.20;55.96;101919.59;5081979;28;20052;-60
2022/05/21 02:04:18;;;;;;;4.72;1.77;;;;;;;16.22;55.95;101925.63;5071773;28;20064;-60
2022/05/21 02:06:47;;;;;;;5.07;1.67;;;;;;;16.23;56.01;101924.56;5073473;28;20080;-60
2022/05/21 02:09:15;;;;;;;3.63;1.92;;;;;;;16.21;56.07;101926.69;5068199;28;20095;-60
2022/05/21 02:11:45;;;;;;;5.05;2.40;;;;;;;16.21;56.08;101931.28;5067267;28;20045;-60
2022/05/21 02:14:13;;;;;;;8.45;2.20;;;;;;;16.19;56.25;101934.22;5066139;28;20053;-60
2022/05/21 02:16:41;;;;;;;6.43;1.90;;;;;;;16.18;56.11;101932.56;5078212;28;20155;-60
2022/05/21 02:19:09;;;;;;;4.90;1.60;;;;;;;16.18;56.17;101927.16;5083695;28;20051;-60
2022/05/21 02:21:40;;;;;;;3.97;1.40;;;;;;;16.18;56.16;101932.56;5074637;28;20048;-59
2022/05/21 02:24:09;;;;;;;4.13;1.70;;;;;;;16.16;56.09;101931.97;5069133;28;20541;-59
2022/05/21 02:26:38;;;;;;;8.82;2.13;;;;;;;16.15;56.21;101932.22;5086284;28;20067;-60
2022/05/21 02:29:08;;;;;;;5.43;2.55;;;;;;;16.13;56.21;101935.16;5082205;28;20287;-59
2022/05/21 02:31:36;;;;;;;4.68;1.70;;;;;;;16.13;56.27;101934.31;5079656;28;20071;-60
2022/05/21 02:34:03;;;;;;;6.05;2.13;;;;;;;16.13;56.41;101929.72;5067065;28;20049;-60
2022/05/21 02:39:28;;;;;;;6.35;1.80;;;;;;;16.10;56.44;101913.91;5076169;28;20528;-59
2022/05/21 02:41:58;;;;;;;5.65;1.65;;;;;;;16.10;56.49;101926.66;5067678;28;20285;-59
2022/05/21 02:44:28;;;;;;;5.70;2.35;;;;;;;16.09;56.45;101923.13;5076555;28;20052;-59
2022/05/21 02:46:57;;;;;;;6.90;1.80;;;;;;;16.10;56.40;101929.38;5069792;28;20041;-60
2022/05/21 02:49:24;;;;;;;8.65;2.17;;;;;;;16.09;56.56;101930.41;5071964;28;20130;-60
2022/05/21 02:51:52;;;;;;;4.15;1.38;;;;;;;16.08;56.56;101935.03;5082614;28;20079;-59
2022/05/21 02:54:20;;;;;;;5.07;1.95;;;;;;;16.07;56.52;101927.94;5079803;28;20072;-59
2022/05/21 02:56:50;;;;;;;5.13;2.90;;;;;;;16.08;56.83;101926.06;5064980;28;20080;-59
2022/05/21 02:59:18;;;;;;;3.88;2.08;;;;;;;16.07;56.63;101927.94;5075543;28;20073;-59
2022/05/21 03:01:47;;;;;;;6.80;2.08;;;;;;;16.06;56.72;101937.13;5066038;28;20085;-59
2022/05/21 03:04:16;;;;;;;4.25;1.73;;;;;;;16.06;56.50;101939.84;5071210;28;20045;-59
2022/05/21 03:06:43;;;;;;;8.77;2.30;;;;;;;16.05;56.84;101930.06;5079940;28;20099;-59
2022/05/21 03:11:56;;;;;;;7.65;2.08;;;;;;;16.04;56.66;101938.44;5063607;28;20037;-59
2022/05/21 03:14:25;;;;;;;6.78;2.00;;;;;;;16.02;56.64;101941.38;5062283;28;20061;-59
2022/05/21 03:16:59;;;;;;;6.53;2.03;;;;;;;16.02;57.11;101935.94;5069821;28;20037;-58
2022/05/21 03:19:28;;;;;;;5.40;1.77;;;;;;;16.02;56.67;101930.53;5075780;28;20059;-59
2022/05/21 03:21:56;;;;;;;7.00;2.10;;;;;;;16.01;56.86;101933.47;5067574;28;20140;-59
2022/05/21 03:24:24;;;;;;;6.57;1.75;;;;;;;16.00;56.75;101931.81;5062739;28;20222;-58
2022/05/21 03:26:52;;;;;;;9.27;2.25;;;;;;;16.00;57.34;101929.09;5075922;28;20422;-59
2022/05/21 03:29:20;;;;;;;6.55;1.77;;;;;;;15.99;56.94;101932.88;5071298;28;20112;-59
2022/05/21 03:31:48;;;;;;;5.13;2.05;;;;;;;15.98;57.01;101932.03;5065478;28;20064;-59
2022/05/21 03:34:17;;;;;;;7.28;1.90;;;;;;;15.96;57.08;101926.03;5062789;28;20116;-59
2022/05/21 03:36:45;;;;;;;6.20;1.98;;;;;;;15.95;57.04;101927.91;5074716;28;20248;-60
2022/05/21 03:39:13;;;;;;;9.75;2.17;;;;;;;15.94;57.17;101934.38;5068831;28;20044;-60
2022/05/21 03:41:41;;;;;;;6.93;2.30;;;;;;;15.95;57.18;101935.22;5061982;28;20036;-60
2022/05/21 03:44:09;;;;;;;5.68;2.17;;;;;;;15.95;57.20;101924.38;5061835;28;20095;-60
2022/05/21 03:46:38;;;;;;;9.70;2.22;;;;;;;15.94;57.02;101928.13;5064965;28;20108;-60
2022/05/21 03:49:06;;;;;;;7.45;2.67;;;;;;;15.93;56.98;101932.72;5067580;28;20072;-59
2022/05/21 03:51:37;;;;;;;9.57;2.60;;;;;;;15.93;57.03;101940.03;5060113;28;20045;-60
2022/05/21 03:54:05;;;;;;;8.52;2.83;;;;;;;15.91;57.25;101942.16;5077230;28;20371;-60
2022/05/21 03:56:33;;;;;;;6.53;2.05;;;;;;;15.92;57.35;101938.38;5078915;28;20051;-60
2022/05/21 03:59:00;;;;;;;12.43;3.25;;;;;;;15.92;57.03;101954.66;5072173;28;20151;-60
2022/05/21 04:01:28;;;;;;;6.93;2.40;;;;;;;15.92;57.20;101950.06;5063001;28;20752;-59
2022/05/21 04:03:56;;;;;;;8.80;2.20;;;;;;;15.92;57.23;101938.38;5078198;28;20049;-60
2022/05/21 04:06:24;;;;;;;6.25;2.35;;;;;;;15.90;57.17;101951.34;5065312;28;20049;-60
2022/05/21 04:08:53;;;;;;;6.95;2.20;;;;;;;15.92;57.26;101951.94;5069702;28;20056;-60
2022/05/21 04:11:21;;;;;;;11.90;2.53;;;;;;;15.90;57.19;101957.59;5074801;28;20040;-61
2022/05/21 04:13:49;;;;;;;4.75;1.90;;;;;;;15.89;57.27;101953.22;5079818;28;20510;-60
2022/05/21 04:16:17;;;;;;;5.07;2.33;;;;;;;15.89;57.28;101953.22;5081243;28;20404;-59
2022/05/21 04:18:44;;;;;;;5.30;1.85;;;;;;;15.89;57.21;101960.53;5064159;28;20049;-60
2022/05/21 04:21:12;;;;;;;7.88;2.38;;;;;;;15.88;57.14;101958.88;5066969;28;20182;-60
2022/05/21 04:23:40;;;;;;;6.20;1.98;;;;;;;15.86;57.40;101961.81;5065401;28;20045;-60
2022/05/21 04:26:09;;;;;;;8.38;2.30;;;;;;;15.85;57.42;101956.63;5083289;28;20076;-59
2022/05/21 04:28:37;;;;;;;9.10;2.92;;;;;;;15.86;57.34;101956.41;5070146;28;20071;-60
2022/05/21 04:31:04;;;;;;;6.78;2.33;;;;;;;15.86;57.47;101971.84;5065384;28;20045;-60
2022/05/21 04:33:32;;;;;;;6.03;1.90;;;;;;;15.84;57.37;101971.25;5080428;28;20048;-59
2022/05/21 04:38:46;;;;;;;7.75;2.90;;;;;;;15.83;57.51;101973.13;5079051;28;20049;-60
2022/05/21 04:41:15;;;;;;;4.93;1.95;;;;;;;15.82;57.45;101979.59;5079385;28;20040;-60
2022/05/21 04:43:43;;;;;;;6.00;2.40;;;;;;;15.82;57.32;101976.88;5077830;28;20082;-59
2022/05/21 04:46:12;;;;;;;9.82;2.60;;;;;;;15.78;57.66;101974.88;5082501;28;20496;-60
2022/05/21 04:48:41;;;;;;;10.27;3.38;;;;;;;15.68;57.55;101959.16;5070438;28;20051;-60
2022/05/21 04:51:28;;;;;;;6.53;2.40;;;;;;;15.78;57.54;101981.13;5070643;28;20136;-60
2022/05/21 04:53:56;;;;;;;8.18;2.78;;;;;;;15.77;57.49;101978.63;5078339;28;20055;-60
2022/05/21 04:56:25;;;;;;;8.38;3.20;;;;;;;15.77;57.78;101992.19;5084521;28;20055;-60
2022/05/21 04:59:06;;;;;;;5.75;2.72;;;;;;;15.77;57.66;101984.06;5083596;28;20108;-59
2022/05/21 05:01:34;;;;;;;6.95;2.70;;;;;;;15.76;57.79;101985.94;5081179;28;20068;-60
2022/05/21 05:04:01;;;;;;;7.50;3.50;;;;;;;15.75;57.59;101992.41;5080507;28;20071;-59
2022/05/21 05:06:29;;;;;;;8.90;3.08;;;;;;;15.74;57.93;101982.63;5068694;28;20045;-59
2022/05/21 05:08:57;;;;;;;6.53;2.88;;;;;;;15.74;57.83;101995.34;5083172;28;20041;-59
2022/05/21 05:11:26;;;;;;;7.43;3.10;;;;;;;15.74;57.89;101992.66;5078580;28;20060;-60
2022/05/21 05:13:54;;;;;;;7.82;2.95;;;;;;;15.73;57.71;101994.53;5089201;28;20083;-59
2022/05/21 05:16:22;;;;;;;7.68;2.75;;;;;;;15.74;57.58;102006.19;5077259;28;20053;-61
2022/05/21 05:18:50;;;;;;;14.05;3.33;;;;;;;15.73;57.73;102002.66;5072001;28;20081;-61
2022/05/21 05:21:18;;;;;;;6.82;2.90;;;;;;;15.73;57.69;102005.38;5083089;28;20112;-61
2022/05/21 05:23:46;;;;;;;8.73;2.72;;;;;;;15.73;57.75;102013.50;5075153;28;20041;-59
2022/05/21 05:26:13;;;;;;;7.88;3.05;;;;;;;15.70;57.72;102005.00;5068804;28;20074;-59
2022/05/21 05:28:42;;;;;;;6.47;2.63;;;;;;;15.72;57.76;102017.25;5068595;28;20475;-59
2022/05/21 05:31:10;;;;;;;12.15;2.70;;;;;;;15.71;58.25;102007.47;5068116;28;20469;-59
2022/05/21 05:33:39;;;;;;;9.77;3.45;;;;;;;15.71;58.06;102010.19;5082918;28;20449;-59
2022/05/21 05:36:08;;;;;;;8.82;3.80;;;;;;;15.71;57.97;102010.19;5081538;28;20063;-59
2022/05/21 05:38:36;;;;;;;9.15;3.40;;;;;;;15.66;58.00;102006.50;5082028;28;20091;-60
2022/05/21 05:41:08;;;;;;;10.88;3.30;;;;;;;15.70;58.32;102016.66;5080935;28;20037;-60
2022/05/21 05:43:36;;;;;;;10.63;4.05;;;;;;;15.70;58.26;102013.13;5081251;28;20053;-59
2022/05/21 05:46:05;;;;;;;9.15;3.95;;;;;;;15.79;58.22;102020.72;5080819;28;20049;-60
2022/05/21 05:48:33;;;;;;;11.73;3.38;;;;;;;15.75;57.98;102018.69;5082708;28;20045;-61
2022/05/21 05:51:02;;;;;;;9.00;3.78;;;;;;;15.74;58.20;102017.88;5082330;28;20041;-60
2022/05/21 05:53:30;;;;;;;10.48;4.22;;;;;;;15.74;58.30;102008.91;5082519;28;20110;-60
2022/05/21 05:55:58;;;;;;;13.90;4.20;;;;;;;15.78;58.47;102019.06;5064871;28;20049;-60
2022/05/21 06:01:12;;;;;;;12.35;4.10;;;;;;;15.73;58.47;102016.22;5086363;28;20044;-60
2022/05/21 06:03:42;;;;;;;10.85;4.30;;;;;;;15.73;58.38;102021.63;5082609;28;20079;-60
2022/05/21 06:06:09;;;;;;;14.77;4.55;;;;;;;15.72;58.38;102022.69;5081944;28;20076;-60
2022/05/21 06:08:37;;;;;;;10.82;4.95;;;;;;;15.70;58.61;102022.09;4724444;28;9999922;-60
2022/05/21 06:11:05;;;;;;;12.77;4.85;;;;;;;15.68;58.41;102026.91;5078663;28;20106;-62
2022/05/21 06:13:33;;;;;;;15.30;6.30;;;;;;;15.68;58.80;102026.91;5068587;28;20082;-60
2022/05/21 06:16:01;;;;;;;12.23;4.95;;;;;;;15.66;59.00;102025.47;5073603;28;20052;-61
2022/05/21 06:18:30;;;;;;;9.18;5.40;;;;;;;15.67;59.19;102029.84;5079417;28;20079;-59
2022/05/21 06:20:59;;;;;;;14.27;4.72;;;;;;;15.68;59.02;102034.22;5071950;28;20080;-61
2022/05/21 06:23:27;;;;;;;16.45;5.10;;;;;;;15.68;59.16;102029.63;5087696;28;20174;-60
2022/05/21 06:25:57;;;;;;;14.18;4.60;;;;;;;15.69;58.74;102031.28;5068297;28;20064;-60
2022/05/21 06:28:24;;;;;;;11.55;5.18;;;;;;;15.70;58.77;102032.94;5074515;28;20052;-61
2022/05/21 06:30:52;;;;;;;12.52;5.20;;;;;;;15.73;59.01;102042.50;5071767;28;20087;-61
2022/05/21 06:33:22;;;;;;;12.25;6.13;;;;;;;15.74;59.09;102036.84;5071326;28;20045;-61
2022/05/21 06:36:03;;;;;;;17.25;6.22;;;;;;;15.77;58.86;102054.53;5077717;28;20086;-61
2022/05/21 06:38:31;;;;;;;12.93;5.88;;;;;;;15.77;58.94;102049.09;5067397;28;20117;-61
2022/05/21 06:40:59;;;;;;;15.38;6.22;;;;;;;15.83;59.21;102046.31;5079853;28;20049;-61
2022/05/21 06:43:27;;;;;;;14.38;5.70;;;;;;;15.82;59.00;102047.38;5066844;28;20076;-61
2022/05/21 06:45:55;;;;;;;11.65;5.50;;;;;;;15.82;59.04;102052.78;5062691;28;20072;-61
2022/05/21 06:48:23;;;;;;;10.85;5.25;;;;;;;16.05;58.74;102051.25;5067621;28;20393;-62
2022/05/21 06:50:52;;;;;;;13.73;6.10;;;;;;;15.98;59.43;102054.06;5071076;28;20053;-65
2022/05/21 06:53:20;;;;;;;9.90;5.03;;;;;;;15.94;59.04;102050.16;5079442;28;20049;-61
2022/05/21 06:55:48;;;;;;;16.52;6.75;;;;;;;15.90;58.97;102054.38;5080757;28;20072;-61
2022/05/21 06:58:16;;;;;;;13.90;6.13;;;;;;;15.87;58.87;102063.78;5063550;28;20088;-61
2022/05/21 07:00:44;;;;;;;10.45;5.38;;;;;;;15.88;59.18;102061.91;5063340;28;20080;-61
2022/05/21 07:03:12;;;;;;;12.93;6.38;;;;;;;15.87;59.26;102057.53;5063747;28;20080;-61
2022/05/21 07:08:28;;;;;;;12.70;6.35;;;;;;;15.88;59.38;102067.31;5062778;28;20087;-61
2022/05/21 07:10:56;;;;;;;11.45;6.22;;;;;;;15.89;59.79;102066.28;5081733;28;20124;-61
2022/05/21 07:13:25;;;;;;;15.32;6.15;;;;;;;15.90;59.52;102067.94;5082163;28;20052;-61
2022/05/21 07:15:54;;;;;;;10.30;6.78;;;;;;;15.90;59.45;102076.06;5083167;28;20477;-61
2022/05/21 07:18:23;;;;;;;16.63;6.78;;;;;;;15.90;59.22;102074.19;5072955;28;20112;-61
2022/05/21 07:20:51;;;;;;;17.92;7.22;;;;;;;15.89;59.55;102083.38;5067906;28;20116;-61
2022/05/21 07:23:19;;;;;;;17.50;7.20;;;;;;;15.89;59.58;102086.06;5063011;28;20080;-61
2022/05/21 07:25:48;;;;;;;17.88;7.70;;;;;;;15.92;59.62;102090.22;5062729;28;20053;-61
2022/05/21 07:28:17;;;;;;;14.82;6.70;;;;;;;15.91;59.63;102093.97;5082929;28;20052;-62
2022/05/21 07:30:46;;;;;;;13.07;7.32;;;;;;;15.91;59.59;102083.97;5080859;28;20049;-61
2022/05/21 07:33:17;;;;;;;12.35;7.10;;;;;;;15.90;59.58;102087.72;5076247;28;20044;-61
2022/05/21 07:35:46;;;;;;;17.88;7.53;;;;;;;15.92;59.63;102091.03;5062052;28;20049;-61
2022/05/21 07:38:15;;;;;;;14.50;7.07;;;;;;;15.94;59.49;102085.41;5062546;28;20049;-61
2022/05/21 07:40:44;;;;;;;16.25;6.78;;;;;;;15.95;59.79;102089.75;5063310;28;20045;-61
2022/05/21 07:43:16;;;;;;;11.90;7.13;;;;;;;15.94;59.71;102090.81;5062338;28;20041;-61
2022/05/21 07:45:45;;;;;;;15.73;6.90;;;;;;;15.97;59.57;102098.50;5062267;28;20217;-60
2022/05/21 07:48:16;;;;;;;17.13;8.10;;;;;;;15.94;59.55;102099.78;5062805;28;20422;-63
2022/05/21 07:50:46;;;;;;;15.35;7.43;;;;;;;15.95;59.37;102097.91;5062850;28;20040;-61
2022/05/21 07:53:15;;;;;;;17.45;7.35;;;;;;;15.99;59.47;102092.84;5062883;28;20113;-61
2022/05/21 07:55:44;;;;;;;14.68;6.82;;;;;;;15.99;59.50;102100.97;5062563;28;20053;-61
2022/05/21 07:58:13;;;;;;;13.60;6.40;;;;;;;15.99;59.59;102100.97;5062145;28;20052;-61
2022/05/21 08:00:41;;;;;;;17.02;6.68;;;;;;;16.01;59.24;102096.16;5062194;28;20060;-61
2022/05/21 08:03:10;;;;;;;17.08;7.22;;;;;;;16.00;59.41;102097.22;5078106;28;20051;-61
2022/05/21 08:05:38;;;;;;;11.93;6.40;;;;;;;16.01;59.31;102107.84;5081771;28;20048;-61
2022/05/21 08:08:07;;;;;;;14.02;7.00;;;;;;;16.01;59.40;102102.41;5061519;28;20082;-61
2022/05/21 08:10:36;;;;;;;17.02;6.03;;;;;;;16.03;59.26;102102.19;5061896;28;20049;-61
2022/05/21 08:13:03;;;;;;;13.65;6.20;;;;;;;16.04;59.42;102106.56;5072732;28;20418;-61
2022/05/21 08:15:33;;;;;;;13.05;6.55;;;;;;;16.02;59.30;102111.38;5079469;28;20447;-61
2022/05/21 08:18:01;;;;;;;14.85;6.10;;;;;;;16.08;59.29;102111.28;5080998;28;20068;-62
2022/05/21 08:20:29;;;;;;;14.02;6.32;;;;;;;16.00;59.27;102091.78;5079092;28;20091;-61
2022/05/21 08:28:27;;;;;;;13.93;6.68;;;;;;;16.06;59.36;102107.16;5039369;28;20073;-62
2022/05/21 08:30:56;;;;;;;12.57;6.88;;;;;;;16.08;59.32;102105.03;5039182;28;20049;-61
2022/05/21 08:33:24;;;;;;;10.18;5.25;;;;;;;16.09;59.25;102112.13;5039867;28;20064;-61
2022/05/21 08:35:52;;;;;;;16.02;6.53;;;;;;;16.10;59.22;102111.06;5038170;28;20100;-61
2022/05/21 08:38:20;;;;;;;12.68;5.68;;;;;;;16.13;59.25;102105.19;5038916;28;20621;-61
2022/05/21 08:40:54;;;;;;;13.30;5.55;;;;;;;16.14;59.23;102102.25;5039871;28;20051;-61
2022/05/21 08:43:24;;;;;;;19.15;6.22;;;;;;;16.15;59.50;102103.06;5039435;28;20680;-61
2022/05/21 08:46:08;;;;;;;15.52;6.10;;;;;;;16.21;59.49;102116.56;5050016;28;20051;-61
2022/05/21 08:48:38;;;;;;;13.05;6.03;;;;;;;16.24;59.53;102104.41;5041434;28;20046;-61
2022/05/21 08:51:13;;;;;;;11.65;6.00;;;;;;;16.24;59.52;102107.13;5044015;28;20053;-61
2022/05/21 08:53:49;;;;;;;12.55;6.90;;;;;;;16.26;59.26;102105.84;5042628;28;20041;-61
2022/05/21 08:56:17;;;;;;;13.98;6.05;;;;;;;16.28;59.35;102108.34;5039339;28;20053;-61
2022/05/21 08:58:48;;;;;;;17.25;6.45;;;;;;;16.29;59.36;102101.84;5038902;28;20053;-61
2022/05/21 09:01:20;;;;;;;13.07;5.70;;;;;;;16.30;59.42;102100.78;5039185;28;20076;-61
2022/05/21 09:03:50;;;;;;;12.95;5.78;;;;;;;16.30;59.19;102100.78;5039246;28;20072;-63
2022/05/21 09:06:33;;;;;;;17.80;5.80;;;;;;;16.31;59.30;102105.16;5054872;28;20049;-61
2022/05/21 09:09:09;;;;;;;18.02;6.00;;;;;;;16.32;59.35;102104.09;5061761;28;20110;-61
2022/05/21 09:11:41;;;;;;;18.30;6.90;;;;;;;16.30;59.13;102100.78;5065003;28;20067;-61
2022/05/21 09:14:14;;;;;;;16.95;6.20;;;;;;;16.32;59.22;102104.09;5081765;28;20079;-61
2022/05/21 09:16:56;;;;;;;13.25;5.60;;;;;;;16.33;59.01;102092.19;5074200;28;20049;-63
2022/05/21 09:19:27;;;;;;;10.07;5.50;;;;;;;16.38;59.42;102086.09;5064518;28;20079;-62
2022/05/21 09:22:00;;;;;;;11.95;6.05;;;;;;;16.38;59.18;102096.94;5081948;28;20128;-62
2022/05/21 09:24:36;;;;;;;17.50;6.22;;;;;;;16.40;59.00;102105.66;5072957;28;20119;-61
2022/05/21 09:27:05;;;;;;;18.83;5.85;;;;;;;16.39;58.87;102091.28;5065257;28;20064;-61
2022/05/21 09:29:35;;;;;;;11.55;4.95;;;;;;;16.41;58.85;102094.59;5065009;28;20129;-61
2022/05/21 09:32:19;;;;;;;10.75;5.50;;;;;;;16.42;58.64;102100.84;5064986;28;20093;-61
2022/05/21 09:35:03;;;;;;;12.25;4.85;;;;;;;16.28;58.43;102083.91;5082082;28;20059;-61
2022/05/21 09:37:31;;;;;;;9.73;5.97;;;;;;;16.43;58.54;102108.75;5083537;28;20048;-61
2022/05/21 09:40:00;;;;;;;12.50;6.22;;;;;;;16.40;58.68;102106.50;5074763;28;20056;-61
2022/05/21 09:45:27;;;;;;;9.07;4.25;;;;;;;16.47;58.83;102104.53;5082880;28;20049;-61
2022/05/21 09:48:16;;;;;;;11.15;5.00;;;;;;;16.48;58.72;102103.47;5076390;28;20063;-61
2022/05/21 09:50:46;;;;;;;16.55;5.03;;;;;;;16.50;58.90;102095.91;5073749;28;20080;-61
2022/05/21 09:53:26;;;;;;;11.65;5.50;;;;;;;16.64;59.04;102101.97;5064989;28;20152;-61
2022/05/21 09:55:58;;;;;;;14.52;6.32;;;;;;;16.62;59.07;102100.56;5064085;28;20076;-61
2022/05/21 09:58:27;;;;;;;11.07;4.60;;;;;;;16.65;59.27;102094.69;5081505;28;20394;-61
2022/05/21 10:00:57;;;;;;;11.48;4.60;;;;;;;16.67;59.26;102103.44;5084423;28;20056;-62
2022/05/21 10:03:46;;;;;;;13.07;5.15;;;;;;;16.66;59.07;102102.59;5084934;28;20056;-61
2022/05/21 10:06:23;;;;;;;13.50;5.13;;;;;;;16.69;59.21;102107.56;5066013;28;20156;-62
2022/05/21 10:11:55;;;;;;;13.98;5.40;;;;;;;16.68;58.85;102105.91;5054480;28;20482;-60
2022/05/21 10:14:26;;;;;;;10.32;5.20;;;;;;;16.69;58.59;102115.72;5064071;28;20057;-61
2022/05/21 10:16:58;;;;;;;11.93;5.90;;;;;;;16.68;58.55;102114.06;5064335;28;20045;-62
2022/05/21 10:19:34;;;;;;;12.60;5.38;;;;;;;16.70;58.59;102113.84;5079045;28;20053;-61
2022/05/21 10:22:18;;;;;;;13.75;5.03;;;;;;;16.71;58.46;102099.19;5083027;28;20146;-61
2022/05/21 10:24:56;;;;;;;10.27;4.88;;;;;;;16.73;58.75;102097.09;4722781;28;10000336;-62
2022/05/21 10:27:45;;;;;;;11.35;4.82;;;;;;;16.76;58.86;102097.44;5070604;28;20048;-62
2022/05/21 10:30:17;;;;;;;12.50;5.18;;;;;;;16.81;58.61;102111.16;5073463;28;20083;-61
2022/05/21 10:33:09;;;;;;;9.75;4.82;;;;;;;16.81;58.27;102094.03;5077904;28;20093;-61
2022/05/21 10:35:51;;;;;;;14.40;6.90;;;;;;;16.81;58.18;102104.91;5078276;28;20116;-61
2022/05/21 10:38:35;;;;;;;13.15;6.28;;;;;;;16.78;58.09;102089.06;5079420;28;20053;-61
2022/05/21 10:41:07;;;;;;;9.73;5.45;;;;;;;16.83;57.98;102109.03;5079350;28;20080;-61
2022/05/21 10:43:58;;;;;;;11.15;5.32;;;;;;;16.83;57.87;102103.59;5060206;28;20438;-61
2022/05/21 10:46:40;;;;;;;11.80;5.13;;;;;;;16.87;57.77;102107.50;5068131;28;20049;-61
2022/05/21 10:49:27;;;;;;;12.80;5.20;;;;;;;16.91;58.50;102116.00;5066834;28;20080;-62
2022/05/21 10:52:02;;;;;;;16.10;6.45;;;;;;;16.92;58.05;102112.25;5068523;28;20044;-62
2022/05/21 10:54:43;;;;;;;10.93;5.40;;;;;;;17.01;59.08;102110.00;5061657;28;20515;-61
2022/05/21 10:57:31;;;;;;;9.10;4.50;;;;;;;17.00;58.09;102109.19;5077046;28;20440;-61
2022/05/21 11:00:06;;;;;;;10.95;4.60;;;;;;;17.06;59.35;102105.53;5067440;28;20125;-61
2022/05/21 11:03:21;;;;;;;8.13;4.10;;;;;;;16.94;58.30;102080.25;5080231;28;20049;-60
2022/05/21 11:06:15;;;;;;;9.95;4.65;;;;;;;17.07;58.17;102100.94;5076775;28;20044;-60
2022/05/21 11:08:55;;;;;;;12.77;4.97;;;;;;;17.05;57.90;102095.72;5079525;28;20063;-62
2022/05/21 11:11:32;;;;;;;13.45;4.88;;;;;;;17.12;58.04;102111.91;5076442;28;20056;-61
2022/05/21 11:14:08;;;;;;;13.68;5.78;;;;;;;17.12;57.11;102114.63;5077812;28;20475;-62
2022/05/21 11:16:42;;;;;;;8.13;4.25;;;;;;;17.13;57.27;102121.72;5074877;28;20047;-62
2022/05/21 11:19:16;;;;;;;8.93;4.30;;;;;;;17.02;57.34;102093.47;5066172;28;20139;-62
2022/05/21 11:21:50;;;;;;;11.38;4.45;;;;;;;17.15;57.19;102115.00;5066356;28;20071;-61
2022/05/21 11:24:29;;;;;;;8.93;4.00;;;;;;;17.18;56.90;102110.97;5078892;28;20040;-61
2022/05/21 11:27:02;;;;;;;8.65;4.03;;;;;;;17.18;56.97;102111.81;5070893;28;20132;-61
2022/05/21 11:29:41;;;;;;;14.02;4.18;;;;;;;17.21;56.95;102110.50;5065231;28;20058;-61
2022/05/21 11:37:55;;;;;;;11.15;4.70;;;;;;;17.28;56.46;102116.66;5071346;28;20620;-61
2022/05/21 11:41:24;;;;;;;16.60;5.32;;;;;;;17.28;56.15;102113.94;5062428;28;20131;-60
2022/05/21 11:46:59;;;;;;;12.05;4.38;;;;;;;17.32;56.28;102109.69;5077119;28;20106;-62
2022/05/21 11:49:35;;;;;;;12.95;4.97;;;;;;;17.33;55.69;102105.09;5078724;28;20159;-62
2022/05/21 11:52:36;;;;;;;12.73;5.25;;;;;;;17.33;56.99;102100.47;5077092;28;20106;-61
2022/05/21 11:55:16;;;;;;;12.15;5.43;;;;;;;17.42;56.80;102107.19;5073269;28;20044;-61
2022/05/21 11:57:51;;;;;;;13.40;4.20;;;;;;;17.44;56.58;102107.78;5077522;28;20471;-62
2022/05/21 12:00:46;;;;;;;9.20;4.40;;;;;;;17.47;56.70;102115.44;5074857;28;20120;-61
2022/05/21 12:03:22;;;;;;;11.25;4.25;;;;;;;17.49;56.36;102112.50;5076208;28;20048;-62
2022/05/21 12:06:14;;;;;;;10.25;4.88;;;;;;;17.39;56.02;102088.63;5073922;28;20041;-62
2022/05/21 12:08:50;;;;;;;12.40;4.90;;;;;;;17.53;56.42;102100.91;5075401;28;20072;-62
2022/05/21 12:11:41;;;;;;;9.05;4.78;;;;;;;17.57;57.24;102101.25;5063197;28;20052;-62
2022/05/21 12:14:22;;;;;;;9.27;4.35;;;;;;;17.60;56.92;102103.50;5075926;28;20492;-61
2022/05/21 12:16:53;;;;;;;10.30;4.53;;;;;;;17.62;56.68;102092.41;5078931;28;20111;-62
2022/05/21 12:20:07;;;;;;;10.45;4.60;;;;;;;17.69;57.41;102098.56;5077574;28;20127;-62
2022/05/21 12:22:54;;;;;;;8.95;4.88;;;;;;;17.71;56.36;102101.88;5066515;28;20061;-60